createdAt,value
2022-09-21T00:01:21.149Z,100.00
2022-09-21T00:03:52.769Z,100.00
2022-09-21T00:06:21.353Z,100.00
2022-09-21T00:08:48.806Z,100.00
2022-09-21T00:11:19.469Z,100.00
2022-09-21T00:13:47.714Z,100.00
2022-09-21T00:16:16.551Z,100.00
2022-09-21T00:18:43.931Z,100.00
2022-09-21T00:21:13.790Z,100.00
2022-09-21T00:23:41.587Z,100.00
2022-09-21T00:26:14.497Z,100.00
2022-09-21T00:28:42.100Z,100.00
2022-09-21T00:31:12.416Z,100.00
2022-09-21T00:33:40.945Z,100.00
2022-09-21T00:36:11.195Z,100.00
2022-09-21T00:38:38.492Z,100.00
2022-09-21T00:41:07.060Z,100.00
2022-09-21T00:43:35.711Z,100.00
2022-09-21T00:46:06.638Z,100.00
2022-09-21T00:48:33.824Z,100.00
2022-09-21T00:51:06.242Z,100.00
2022-09-21T00:53:34.644Z,100.00
2022-09-21T00:56:02.932Z,100.00
2022-09-21T00:58:37.860Z,100.00
2022-09-21T01:01:05.272Z,100.00
2022-09-21T01:03:32.567Z,100.00
2022-09-21T01:05:59.816Z,100.00
2022-09-21T01:08:27.954Z,100.00
2022-09-21T01:11:13.616Z,100.00
2022-09-21T01:14:02.896Z,100.00
2022-09-21T01:16:45.579Z,100.00
2022-09-21T01:19:30.760Z,100.00
2022-09-21T01:22:42.032Z,100.00
2022-09-21T01:25:29.996Z,100.00
2022-09-21T01:28:24.790Z,100.00
2022-09-21T01:30:54.527Z,100.00
2022-09-21T01:33:30.352Z,100.00
2022-09-21T01:36:02.926Z,100.00
2022-09-21T01:38:40.776Z,100.00
2022-09-21T01:41:12.109Z,100.00
2022-09-21T01:43:43.658Z,100.00
2022-09-21T01:46:18.527Z,100.00
2022-09-21T01:48:49.658Z,100.00
2022-09-21T01:51:20.017Z,100.00
2022-09-21T01:53:59.060Z,100.00
2022-09-21T01:56:36.558Z,100.00
2022-09-21T01:59:08.064Z,100.00
2022-09-21T02:01:41.237Z,100.00
2022-09-21T02:04:13.533Z,100.00
2022-09-21T02:06:45.047Z,100.00
2022-09-21T02:09:12.327Z,100.00
2022-09-21T02:11:42.543Z,100.00
2022-09-21T02:14:11.892Z,100.00
2022-09-21T02:16:56.819Z,100.00
2022-09-21T02:19:38.729Z,100.00
2022-09-21T02:22:18.778Z,100.00
2022-09-21T02:24:57.844Z,100.00
2022-09-21T02:27:34.788Z,100.00
2022-09-21T02:30:07.892Z,100.00
2022-09-21T02:32:43.930Z,100.00
2022-09-21T02:35:21.566Z,100.00
2022-09-21T02:38:10.550Z,100.00
2022-09-21T02:40:49.314Z,100.00
2022-09-21T02:43:27.855Z,100.00
2022-09-21T02:46:00.442Z,100.00
2022-09-21T02:48:39.118Z,99.98
2022-09-21T02:51:11.605Z,100.00
2022-09-21T02:53:41.724Z,99.97
2022-09-21T02:56:11.543Z,100.00
2022-09-21T02:58:42.818Z,100.00
2022-09-21T03:01:16.209Z,100.00
2022-09-21T03:03:43.455Z,100.00
2022-09-21T03:06:10.738Z,100.00
2022-09-21T03:08:37.562Z,100.00
2022-09-21T03:11:04.870Z,100.00
2022-09-21T03:13:31.854Z,100.00
2022-09-21T03:16:01.877Z,100.00
2022-09-21T03:18:29.656Z,100.00
2022-09-21T03:20:56.975Z,100.00
2022-09-21T03:23:24.352Z,100.00
2022-09-21T03:25:57.775Z,100.00
2022-09-21T03:28:25.092Z,100.00
2022-09-21T03:30:52.665Z,100.00
2022-09-21T03:33:20.314Z,100.00
2022-09-21T03:35:51.168Z,100.00
2022-09-21T03:38:19.243Z,100.00
2022-09-21T03:40:49.841Z,100.00
2022-09-21T03:43:17.663Z,100.00
2022-09-21T03:45:44.707Z,100.00
2022-09-21T03:48:12.735Z,100.00
2022-09-21T03:50:39.791Z,100.00
2022-09-21T03:53:07.187Z,100.00
2022-09-21T03:55:34.849Z,100.00
2022-09-21T03:58:02.783Z,100.00
2022-09-21T04:00:30.242Z,100.00
2022-09-21T04:02:57.780Z,100.00
2022-09-21T04:05:24.944Z,100.00
2022-09-21T04:07:51.904Z,100.00
2022-09-21T04:10:21.940Z,100.00
2022-09-21T04:12:49.386Z,100.00
2022-09-21T04:15:19.977Z,100.00
2022-09-21T04:17:51.712Z,100.00
2022-09-21T04:20:19.412Z,100.00
2022-09-21T04:22:47.266Z,100.00
2022-09-21T04:25:15.618Z,100.00
2022-09-21T04:27:43.422Z,100.00
2022-09-21T04:30:13.308Z,100.00
2022-09-21T04:32:40.847Z,100.00
2022-09-21T04:35:08.443Z,100.00
2022-09-21T04:37:35.505Z,100.00
2022-09-21T04:40:03.253Z,100.00
2022-09-21T04:42:30.408Z,100.00
2022-09-21T04:44:57.239Z,100.00
2022-09-21T04:47:25.267Z,100.00
2022-09-21T04:49:55.205Z,100.00
2022-09-21T04:52:21.993Z,100.00
2022-09-21T04:54:48.736Z,100.00
2022-09-21T04:57:15.974Z,100.00
2022-09-21T04:59:42.868Z,100.00
2022-09-21T05:02:10.121Z,100.00
2022-09-21T05:04:37.316Z,100.00
2022-09-21T05:07:04.320Z,100.00
2022-09-21T05:09:50.113Z,100.00
2022-09-21T05:12:17.119Z,100.00
2022-09-21T05:14:45.008Z,100.00
2022-09-21T05:17:12.838Z,100.00
2022-09-21T05:19:40.500Z,100.00
2022-09-21T05:22:07.523Z,100.00
2022-09-21T05:24:34.995Z,100.00
2022-09-21T05:27:02.372Z,99.68
2022-09-21T05:29:29.410Z,99.85
2022-09-21T05:32:06.683Z,99.29
2022-09-21T05:34:41.701Z,99.26
2022-09-21T05:37:37.861Z,98.54
2022-09-21T05:40:06.453Z,98.35
2022-09-21T05:42:33.847Z,97.60
2022-09-21T05:45:01.543Z,97.38
2022-09-21T05:47:56.829Z,96.80
2022-09-21T05:50:45.272Z,96.07
2022-09-21T05:53:31.072Z,95.73
2022-09-21T05:56:07.086Z,95.05
2022-09-21T05:58:40.166Z,94.93
2022-09-21T06:01:30.292Z,95.23
2022-09-21T06:03:59.706Z,94.44
2022-09-21T06:06:26.468Z,94.42
2022-09-21T06:08:53.281Z,93.84
2022-09-21T06:11:20.549Z,93.77
2022-09-21T06:13:47.561Z,93.73
2022-09-21T06:16:14.681Z,93.91
2022-09-21T06:18:42.471Z,93.80
2022-09-21T06:21:09.978Z,92.43
2022-09-21T06:23:37.262Z,92.34
2022-09-21T06:26:04.636Z,92.24
2022-09-21T06:28:32.514Z,92.24
2022-09-21T06:30:59.430Z,91.68
2022-09-21T06:33:26.630Z,91.51
2022-09-21T06:35:57.668Z,91.24
2022-09-21T06:38:26.086Z,90.39
2022-09-21T06:40:53.744Z,90.11
2022-09-21T06:43:21.384Z,90.36
2022-09-21T06:45:59.630Z,90.85
2022-09-21T06:48:28.101Z,89.42
2022-09-21T06:51:13.258Z,88.53
2022-09-21T06:53:40.248Z,88.95
2022-09-21T06:56:11.477Z,88.31
2022-09-21T06:58:38.398Z,87.47
2022-09-21T07:01:12.148Z,87.65
2022-09-21T07:03:40.383Z,87.08
2022-09-21T07:06:08.860Z,86.65
2022-09-21T07:11:24.199Z,86.41
2022-09-21T07:13:51.341Z,85.70
2022-09-21T07:16:20.031Z,86.00
2022-09-21T07:18:47.283Z,85.67
2022-09-21T07:21:14.855Z,85.70
2022-09-21T07:23:41.877Z,84.99
2022-09-21T07:26:12.004Z,85.03
2022-09-21T07:28:39.744Z,83.52
2022-09-21T07:31:14.064Z,83.06
2022-09-21T07:33:42.246Z,82.37
2022-09-21T07:36:10.690Z,81.26
2022-09-21T07:38:43.240Z,82.36
2022-09-21T07:41:12.946Z,80.95
2022-09-21T07:43:40.751Z,79.48
2022-09-21T07:46:10.535Z,79.46
2022-09-21T07:48:37.834Z,78.70
2022-09-21T07:51:06.735Z,79.35
2022-09-21T07:53:34.964Z,77.23
2022-09-21T07:56:04.683Z,76.33
2022-09-21T07:58:51.567Z,77.51
2022-09-21T08:01:18.951Z,76.90
2022-09-21T08:04:09.668Z,77.27
2022-09-21T08:06:40.181Z,76.59
2022-09-21T08:09:08.550Z,77.24
2022-09-21T08:11:37.540Z,76.20
2022-09-21T08:14:05.271Z,74.92
2022-09-21T08:16:34.001Z,75.10
2022-09-21T08:19:02.295Z,75.26
2022-09-21T08:21:29.579Z,75.29
2022-09-21T08:23:57.766Z,74.75
2022-09-21T08:26:24.898Z,74.87
2022-09-21T08:28:53.657Z,74.31
2022-09-21T08:31:22.404Z,72.91
2022-09-21T08:33:50.219Z,73.25
2022-09-21T08:36:17.789Z,73.71
2022-09-21T08:38:45.331Z,74.14
2022-09-21T08:41:13.174Z,73.44
2022-09-21T08:43:43.273Z,73.71
2022-09-21T08:46:15.525Z,73.91
2022-09-21T08:48:49.279Z,73.97
2022-09-21T08:51:23.236Z,74.90
2022-09-21T08:53:53.763Z,74.75
2022-09-21T08:56:22.410Z,73.82
2022-09-21T08:58:49.305Z,72.97
2022-09-21T09:01:56.595Z,73.59
2022-09-21T09:04:49.178Z,72.38
2022-09-21T09:07:25.195Z,72.42
2022-09-21T09:10:07.043Z,72.77
2022-09-21T09:12:55.725Z,72.59
2022-09-21T09:15:49.732Z,71.43
2022-09-21T09:18:33.429Z,72.12
2022-09-21T09:21:07.143Z,72.23
2022-09-21T09:23:53.956Z,73.08
2022-09-21T09:26:27.810Z,71.38
2022-09-21T09:29:18.415Z,71.23
2022-09-21T09:31:45.690Z,70.53
2022-09-21T09:34:22.835Z,70.66
2022-09-21T09:36:59.091Z,71.47
2022-09-21T09:39:29.752Z,70.20
2022-09-21T09:42:24.373Z,70.24
2022-09-21T09:45:22.785Z,69.89
2022-09-21T09:48:23.004Z,69.78
2022-09-21T09:50:50.241Z,70.10
2022-09-21T09:53:20.667Z,68.71
2022-09-21T09:55:52.471Z,68.60
2022-09-21T09:58:36.902Z,67.71
2022-09-21T10:01:04.286Z,68.77
2022-09-21T10:03:31.508Z,67.41
2022-09-21T10:05:58.426Z,67.58
2022-09-21T10:08:27.922Z,68.50
2022-09-21T10:10:55.156Z,68.04
2022-09-21T10:13:21.907Z,68.90
2022-09-21T10:15:56.014Z,67.73
2022-09-21T10:18:29.512Z,67.63
2022-09-21T10:21:25.643Z,67.48
2022-09-21T10:23:59.447Z,66.11
2022-09-21T10:26:34.566Z,65.52
2022-09-21T10:29:18.456Z,64.81
2022-09-21T10:32:14.837Z,65.69
2022-09-21T10:35:01.384Z,67.17
2022-09-21T10:37:33.522Z,68.58
2022-09-21T10:40:01.569Z,69.08
2022-09-21T10:42:36.344Z,68.29
2022-09-21T10:45:16.467Z,67.57
2022-09-21T10:47:48.296Z,67.37
2022-09-21T10:50:29.417Z,66.74
2022-09-21T10:53:13.937Z,70.43
2022-09-21T10:55:58.479Z,70.80
2022-09-21T10:58:32.705Z,70.06
2022-09-21T11:01:23.390Z,70.85
2022-09-21T11:03:57.079Z,71.30
2022-09-21T11:06:41.033Z,71.51
2022-09-21T11:09:31.575Z,71.38
2022-09-21T11:12:20.039Z,71.71
2022-09-21T11:15:00.989Z,71.87
2022-09-21T11:17:35.149Z,71.97
2022-09-21T11:20:17.734Z,71.49
2022-09-21T11:23:15.154Z,71.36
2022-09-21T11:26:16.044Z,72.55
2022-09-21T11:29:11.027Z,73.50
2022-09-21T11:32:07.643Z,73.67
2022-09-21T11:34:34.717Z,73.15
2022-09-21T11:37:18.742Z,71.37
2022-09-21T11:40:12.232Z,68.34
2022-09-21T11:43:08.382Z,64.94
2022-09-21T11:45:50.477Z,63.94
2022-09-21T11:48:56.331Z,63.65
2022-09-21T11:51:46.120Z,62.27
2022-09-21T11:54:31.390Z,61.81
2022-09-21T11:57:23.165Z,60.93
2022-09-21T12:00:16.127Z,59.61
2022-09-21T12:02:52.693Z,59.46
2022-09-21T12:05:41.606Z,59.15
2022-09-21T12:08:40.331Z,58.64
2022-09-21T12:11:28.727Z,58.41
2022-09-21T12:14:02.794Z,59.44
2022-09-21T12:16:40.826Z,58.47
2022-09-21T12:19:36.403Z,56.73
2022-09-21T12:22:28.663Z,55.88
2022-09-21T12:25:02.241Z,55.33
2022-09-21T12:27:39.332Z,55.88
2022-09-21T12:30:34.070Z,56.84
2022-09-21T12:33:21.009Z,54.98
2022-09-21T12:35:54.709Z,53.91
2022-09-21T12:38:30.234Z,53.99
2022-09-21T12:41:21.519Z,54.13
2022-09-21T12:44:00.401Z,52.92
2022-09-21T12:46:52.018Z,52.65
2022-09-21T12:49:32.967Z,51.93
2022-09-21T12:52:06.925Z,52.45
2022-09-21T12:55:00.680Z,52.53
2022-09-21T12:58:15.187Z,53.59
2022-09-21T13:01:23.093Z,51.48
2022-09-21T13:04:27.993Z,51.85
2022-09-21T13:07:00.951Z,51.62
2022-09-21T13:09:29.825Z,51.59
2022-09-21T13:12:01.938Z,51.57
2022-09-21T13:14:34.791Z,51.96
2022-09-21T13:17:05.740Z,51.91
2022-09-21T13:19:35.682Z,51.19
2022-09-21T13:22:24.729Z,55.12
2022-09-21T13:25:05.184Z,58.18
2022-09-21T13:28:02.139Z,59.77
2022-09-21T13:30:32.703Z,60.82
2022-09-21T13:33:01.732Z,61.41
2022-09-21T13:35:51.113Z,61.60
2022-09-21T13:38:29.350Z,61.92
2022-09-21T13:40:59.941Z,62.27
2022-09-21T13:43:46.954Z,62.54
2022-09-21T13:46:32.073Z,62.42
2022-09-21T13:49:10.568Z,61.75
2022-09-21T13:52:03.848Z,61.80
2022-09-21T13:54:39.416Z,59.93
2022-09-21T13:57:21.248Z,59.69
2022-09-21T14:00:07.480Z,59.57
2022-09-21T14:02:44.875Z,60.00
2022-09-21T14:05:35.789Z,59.79
2022-09-21T14:08:06.852Z,60.42
2022-09-21T14:10:37.535Z,61.10
2022-09-21T14:13:24.761Z,61.29
2022-09-21T14:15:51.870Z,61.79
2022-09-21T14:18:22.318Z,61.85
2022-09-21T14:21:08.893Z,62.54
2022-09-21T14:23:38.841Z,62.54
2022-09-21T14:26:41.622Z,62.02
2022-09-21T14:29:18.447Z,62.65
2022-09-21T14:31:46.012Z,62.14
2022-09-21T14:34:18.619Z,63.02
2022-09-21T14:36:50.182Z,63.79
2022-09-21T14:39:32.117Z,63.42
2022-09-21T14:42:08.512Z,64.71
2022-09-21T14:44:36.813Z,65.00
2022-09-21T14:47:17.359Z,64.35
2022-09-21T14:49:53.493Z,64.36
2022-09-21T14:52:43.719Z,64.01
2022-09-21T14:55:22.266Z,63.53
2022-09-21T14:58:19.115Z,63.18
2022-09-21T15:00:50.481Z,62.49
2022-09-21T15:03:35.803Z,62.15
2022-09-21T15:06:41.011Z,61.44
2022-09-21T15:09:48.447Z,61.60
2022-09-21T15:12:23.592Z,61.33
2022-09-21T15:15:21.649Z,60.79
2022-09-21T15:18:01.961Z,61.86
2022-09-21T15:20:32.203Z,61.74
2022-09-21T15:23:00.471Z,61.72
2022-09-21T15:25:32.071Z,61.95
2022-09-21T15:28:00.289Z,61.86
2022-09-21T15:30:29.695Z,61.37
2022-09-21T15:32:59.724Z,61.69
2022-09-21T15:35:29.295Z,62.00
2022-09-21T15:38:00.098Z,62.32
2022-09-21T15:40:32.661Z,62.81
2022-09-21T15:43:13.193Z,63.54
2022-09-21T15:46:00.875Z,64.06
2022-09-21T15:48:34.648Z,64.41
2022-09-21T15:51:41.671Z,65.25
2022-09-21T15:54:32.273Z,66.32
2022-09-21T15:57:08.474Z,66.23
2022-09-21T15:59:35.980Z,66.28
2022-09-21T16:02:12.221Z,66.32
2022-09-21T16:04:49.499Z,66.32
2022-09-21T16:07:25.292Z,66.86
2022-09-21T16:09:52.366Z,67.43
2022-09-21T16:12:39.506Z,68.37
2022-09-21T16:15:16.262Z,69.05
2022-09-21T16:18:04.862Z,70.50
2022-09-21T16:20:44.659Z,71.62
2022-09-21T16:23:15.798Z,72.63
2022-09-21T16:25:43.563Z,73.47
2022-09-21T16:28:16.442Z,74.22
2022-09-21T16:30:53.572Z,74.98
2022-09-21T16:33:41.340Z,75.29
2022-09-21T16:36:17.404Z,75.31
2022-09-21T16:38:47.161Z,75.46
2022-09-21T16:41:16.963Z,74.70
2022-09-21T16:43:44.591Z,73.47
2022-09-21T16:46:13.116Z,72.95
2022-09-21T16:48:40.585Z,71.71
2022-09-21T16:51:15.890Z,72.23
2022-09-21T16:53:43.046Z,72.20
2022-09-21T16:56:15.386Z,71.88
2022-09-21T16:58:45.324Z,71.07
2022-09-21T17:01:16.017Z,71.51
2022-09-21T17:03:42.992Z,71.44
2022-09-21T17:06:18.565Z,71.57
2022-09-21T17:08:48.276Z,71.59
2022-09-21T17:11:20.178Z,71.68
2022-09-21T17:13:50.815Z,71.45
2022-09-21T17:16:19.679Z,71.75
2022-09-21T17:18:48.551Z,72.13
2022-09-21T17:21:16.744Z,71.71
2022-09-21T17:23:43.699Z,70.88
2022-09-21T17:26:21.243Z,71.64
2022-09-21T17:28:48.515Z,71.76
2022-09-21T17:31:16.587Z,72.18
2022-09-21T17:33:44.903Z,72.87
2022-09-21T17:36:16.223Z,73.36
2022-09-21T17:38:44.334Z,73.80
2022-09-21T17:41:20.633Z,74.19
2022-09-21T17:44:05.441Z,74.89
2022-09-21T17:46:40.663Z,75.55
2022-09-21T17:49:10.608Z,75.92
2022-09-21T17:51:56.708Z,76.49
2022-09-21T17:54:24.489Z,76.76
2022-09-21T17:57:06.773Z,77.37
2022-09-21T17:59:36.975Z,77.59
2022-09-21T18:02:19.841Z,77.67
2022-09-21T18:04:50.188Z,77.72
2022-09-21T18:07:17.678Z,77.83
2022-09-21T18:09:44.873Z,78.06
2022-09-21T18:12:53.499Z,77.97
2022-09-21T18:15:39.200Z,78.31
2022-09-21T18:18:48.938Z,78.30
2022-09-21T18:21:20.583Z,78.53
2022-09-21T18:24:02.858Z,78.80
2022-09-21T18:26:30.116Z,78.95
2022-09-21T18:28:58.308Z,79.40
2022-09-21T18:31:44.096Z,79.68
2022-09-21T18:34:41.514Z,79.31
2022-09-21T18:37:30.192Z,79.31
2022-09-21T18:40:03.475Z,79.27
2022-09-21T18:42:56.768Z,79.70
2022-09-21T18:45:31.957Z,79.68
2022-09-21T18:48:13.973Z,79.95
2022-09-21T18:51:04.680Z,80.20
2022-09-21T18:53:35.884Z,80.20
2022-09-21T18:56:03.624Z,80.29
2022-09-21T18:58:30.768Z,80.56
2022-09-21T19:00:58.012Z,80.87
2022-09-21T19:03:25.350Z,81.29
2022-09-21T19:06:11.319Z,81.53
2022-09-21T19:08:46.581Z,81.78
2022-09-21T19:11:32.246Z,82.12
2022-09-21T19:14:14.774Z,82.61
2022-09-21T19:17:05.456Z,82.82
2022-09-21T19:20:03.410Z,83.11
2022-09-21T19:22:46.577Z,82.97
2022-09-21T19:25:36.330Z,83.05
2022-09-21T19:28:28.903Z,83.09
2022-09-21T19:31:01.679Z,83.52
2022-09-21T19:33:49.528Z,83.52
2022-09-21T19:36:17.752Z,83.74
2022-09-21T19:38:44.777Z,84.10
2022-09-21T19:41:19.129Z,84.07
2022-09-21T19:43:57.833Z,84.12
2022-09-21T19:46:38.693Z,84.20
2022-09-21T19:49:18.257Z,84.26
2022-09-21T19:51:51.593Z,84.48
2022-09-21T19:54:42.638Z,84.37
2022-09-21T19:57:39.965Z,84.41
2022-09-21T20:00:10.948Z,84.71
2022-09-21T20:03:04.907Z,84.78
2022-09-21T20:05:47.776Z,85.05
2022-09-21T20:08:25.256Z,84.69
2022-09-21T20:11:00.894Z,85.06
2022-09-21T20:14:04.953Z,84.21
2022-09-21T20:16:37.357Z,84.05
2022-09-21T20:19:14.800Z,83.93
2022-09-21T20:21:43.743Z,84.30
2022-09-21T20:24:43.538Z,84.54
2022-09-21T20:27:26.948Z,84.21
2022-09-21T20:29:54.072Z,84.03
2022-09-21T20:32:22.340Z,84.10
2022-09-21T20:34:50.238Z,83.97
2022-09-21T20:37:21.077Z,83.68
2022-09-21T20:39:48.134Z,83.82
2022-09-21T20:42:23.799Z,84.22
2022-09-21T20:44:51.691Z,84.17
2022-09-21T20:47:20.494Z,84.21
2022-09-21T20:49:48.455Z,84.62
2022-09-21T20:52:17.350Z,85.06
2022-09-21T20:54:48.998Z,85.39
2022-09-21T20:57:18.228Z,85.67
2022-09-21T20:59:45.238Z,85.75
2022-09-21T21:02:13.739Z,85.98
2022-09-21T21:04:41.094Z,86.30
2022-09-21T21:07:08.661Z,86.27
2022-09-21T21:09:35.696Z,86.08
2022-09-21T21:12:03.029Z,86.63
2022-09-21T21:14:30.006Z,86.87
2022-09-21T21:16:57.222Z,87.22
2022-09-21T21:19:24.322Z,87.43
2022-09-21T21:21:51.084Z,87.62
2022-09-21T21:24:36.664Z,87.83
2022-09-21T21:27:03.908Z,87.81
2022-09-21T21:29:32.057Z,87.50
2022-09-21T21:31:59.807Z,87.92
2022-09-21T21:34:27.766Z,88.20
2022-09-21T21:36:55.257Z,88.36
2022-09-21T21:39:22.270Z,88.41
2022-09-21T21:41:49.320Z,88.60
2022-09-21T21:44:16.423Z,88.83
2022-09-21T21:46:43.455Z,89.26
2022-09-21T21:49:10.540Z,89.16
2022-09-21T21:51:37.406Z,89.28
2022-09-21T21:54:04.347Z,89.60
2022-09-21T21:56:31.721Z,89.79
2022-09-21T21:58:58.494Z,90.02
2022-09-21T22:01:29.442Z,90.00
2022-09-21T22:04:02.096Z,89.80
2022-09-21T22:06:31.332Z,89.95
2022-09-21T22:08:59.671Z,90.20
2022-09-21T22:11:27.674Z,89.65
2022-09-21T22:13:55.300Z,89.19
2022-09-21T22:16:24.262Z,89.41
2022-09-21T22:18:52.353Z,89.19
2022-09-21T22:21:27.940Z,89.23
2022-09-21T22:24:03.505Z,89.32
2022-09-21T22:26:34.986Z,88.60
2022-09-21T22:29:03.900Z,89.11
2022-09-21T22:31:34.021Z,89.32
2022-09-21T22:34:01.101Z,89.25
2022-09-21T22:36:30.655Z,89.51
2022-09-21T22:38:57.843Z,89.32
2022-09-21T22:41:27.620Z,89.79
2022-09-21T22:43:56.140Z,90.18
2022-09-21T22:46:24.130Z,90.37
2022-09-21T22:48:51.298Z,90.72
2022-09-21T22:51:20.210Z,90.45
2022-09-21T22:53:48.717Z,90.76
2022-09-21T22:56:20.695Z,90.71
2022-09-21T22:58:50.391Z,90.70
2022-09-21T23:01:34.089Z,91.00
2022-09-21T23:04:04.747Z,90.49
2022-09-21T23:06:33.749Z,90.41
2022-09-21T23:09:02.749Z,90.27
2022-09-21T23:11:33.749Z,90.43
2022-09-21T23:14:00.731Z,90.36
2022-09-21T23:16:29.319Z,90.36
2022-09-21T23:18:57.870Z,90.68
2022-09-21T23:21:27.335Z,90.75
2022-09-21T23:23:56.940Z,91.01
2022-09-21T23:26:26.109Z,90.97
2022-09-21T23:28:55.709Z,90.92
2022-09-21T23:31:23.757Z,91.10
2022-09-21T23:33:52.238Z,90.97
2022-09-21T23:36:22.697Z,91.13
2022-09-21T23:38:50.345Z,91.28
2022-09-21T23:41:19.883Z,91.16
2022-09-21T23:43:47.247Z,91.20
2022-09-21T23:46:17.760Z,91.23
2022-09-21T23:48:45.097Z,91.10
2022-09-21T23:51:12.332Z,91.46
2022-09-21T23:53:40.641Z,91.76
2022-09-21T23:56:09.473Z,91.79
2022-09-21T23:58:36.514Z,91.79
